createdAt,value
2017-10-29T00:00:36.609Z,959.27
2017-10-29T00:01:46.306Z,959.34
2017-10-29T00:02:55.670Z,959.3
2017-10-29T00:04:05.031Z,959.26
2017-10-29T00:05:14.062Z,959.22
2017-10-29T00:06:23.093Z,959.2
2017-10-29T00:07:32.465Z,959.15
2017-10-29T00:08:41.820Z,959.11
2017-10-29T00:09:50.853Z,958.96
2017-10-29T00:10:59.884Z,959.04
2017-10-29T00:12:08.589Z,959.09
2017-10-29T00:13:17.608Z,959
2017-10-29T00:14:27.310Z,959.06
2017-10-29T00:15:36.010Z,958.92
2017-10-29T00:16:45.375Z,959.04
2017-10-29T00:17:54.746Z,958.95
2017-10-29T00:19:03.769Z,958.98
2017-10-29T00:20:12.798Z,959.06
2017-10-29T00:21:21.493Z,959.11
2017-10-29T00:22:30.186Z,959.02
2017-10-29T00:23:38.883Z,959.04
2017-10-29T00:24:47.918Z,958.96
2017-10-29T00:25:56.608Z,958.92
2017-10-29T00:27:05.302Z,958.99
2017-10-29T00:28:15.006Z,958.87
2017-10-29T00:29:24.711Z,958.97
2017-10-29T00:30:33.742Z,958.92
2017-10-29T00:31:43.770Z,958.85
2017-10-29T00:32:52.468Z,958.85
2017-10-29T00:34:01.493Z,958.78
2017-10-29T00:35:10.193Z,958.79
2017-10-29T00:36:19.885Z,958.72
2017-10-29T00:37:28.582Z,958.87
2017-10-29T00:38:37.613Z,958.8
2017-10-29T00:39:46.978Z,958.63
2017-10-29T00:40:56.002Z,958.62
2017-10-29T00:42:04.703Z,958.59
2017-10-29T00:43:14.067Z,958.62
2017-10-29T00:44:23.427Z,958.61
2017-10-29T00:45:33.134Z,958.56
2017-10-29T00:46:42.494Z,958.54
2017-10-29T00:47:52.211Z,958.58
2017-10-29T00:49:01.911Z,958.53
2017-10-29T00:50:10.942Z,958.52
2017-10-29T00:51:19.638Z,958.45
2017-10-29T00:52:28.665Z,958.42
2017-10-29T00:53:37.364Z,958.56
2017-10-29T00:54:46.393Z,958.38
2017-10-29T00:55:55.437Z,958.44
2017-10-29T00:57:04.802Z,958.5
2017-10-29T00:58:13.838Z,958.3
2017-10-29T00:59:22.538Z,958.44
2017-10-29T01:00:31.237Z,958.43
2017-10-29T01:01:40.273Z,958.33
2017-10-29T01:02:49.632Z,958.35
2017-10-29T01:03:58.993Z,958.23
2017-10-29T01:05:08.025Z,958.26
2017-10-29T01:06:17.393Z,958.34
2017-10-29T01:07:26.418Z,958.36
2017-10-29T01:08:35.450Z,958.28
2017-10-29T01:09:44.476Z,958.24
2017-10-29T01:10:53.506Z,958.22
2017-10-29T01:12:02.537Z,958.15
2017-10-29T01:13:11.568Z,958.28
2017-10-29T01:14:21.313Z,958.14
2017-10-29T01:15:30.349Z,958.13
2017-10-29T01:16:39.040Z,958.13
2017-10-29T01:17:48.402Z,958.08
2017-10-29T01:18:57.435Z,958.26
2017-10-29T01:20:06.806Z,958.13
2017-10-29T01:21:15.507Z,958.07
2017-10-29T01:22:24.202Z,958.1
2017-10-29T01:23:32.911Z,958.15
2017-10-29T01:24:41.601Z,958.19
2017-10-29T01:25:50.969Z,958.04
2017-10-29T01:27:00.331Z,957.96
2017-10-29T01:28:09.032Z,957.99
2017-10-29T01:29:17.733Z,958.02
2017-10-29T01:30:27.098Z,957.93
2017-10-29T01:31:36.802Z,957.98
2017-10-29T01:32:46.166Z,957.89
2017-10-29T01:33:54.861Z,957.91
2017-10-29T01:35:03.560Z,957.76
2017-10-29T01:36:12.255Z,957.82
2017-10-29T01:37:21.308Z,957.89
2017-10-29T01:38:30.664Z,957.89
2017-10-29T01:39:40.020Z,957.9
2017-10-29T01:40:50.063Z,957.78
2017-10-29T01:41:58.765Z,957.86
2017-10-29T01:43:07.795Z,957.88
2017-10-29T01:44:16.824Z,957.76
2017-10-29T01:45:25.525Z,957.81
2017-10-29T01:46:34.880Z,957.6
2017-10-29T01:47:43.579Z,957.69
2017-10-29T01:48:52.607Z,957.72
2017-10-29T01:50:01.649Z,957.52
2017-10-29T01:51:10.353Z,957.59
2017-10-29T01:52:19.378Z,957.58
2017-10-29T01:53:28.744Z,957.62
2017-10-29T01:54:38.102Z,957.51
2017-10-29T01:55:47.132Z,957.44
2017-10-29T01:56:56.827Z,957.45
2017-10-29T01:58:06.188Z,957.43
2017-10-29T01:59:15.547Z,957.51
2017-10-29T02:00:24.903Z,957.48
2017-10-29T02:01:34.599Z,957.39
2017-10-29T02:02:43.968Z,957.36
2017-10-29T02:03:53.331Z,957.43
2017-10-29T02:05:02.363Z,957.29
2017-10-29T02:06:11.396Z,957.32
2017-10-29T02:07:20.421Z,957.28
2017-10-29T02:08:29.803Z,957.3
2017-10-29T02:09:39.164Z,957.26
2017-10-29T02:10:48.191Z,957.37
2017-10-29T02:11:57.221Z,957.17
2017-10-29T02:13:05.921Z,957.25
2017-10-29T02:14:14.620Z,957.12
2017-10-29T02:15:23.987Z,957.22
2017-10-29T02:16:33.017Z,957.13
2017-10-29T02:17:42.045Z,957.18
2017-10-29T02:18:51.077Z,957.08
2017-10-29T02:20:00.440Z,957.11
2017-10-29T02:21:09.807Z,957.08
2017-10-29T02:22:18.832Z,957
2017-10-29T02:23:27.866Z,956.96
2017-10-29T02:24:36.578Z,956.91
2017-10-29T02:25:46.274Z,957.02
2017-10-29T02:26:55.639Z,956.95
2017-10-29T02:28:04.674Z,956.92
2017-10-29T02:29:13.702Z,956.98
2017-10-29T02:30:22.738Z,956.96
2017-10-29T02:31:31.766Z,956.86
2017-10-29T02:32:41.133Z,956.89
2017-10-29T02:33:50.831Z,956.94
2017-10-29T02:35:00.195Z,956.77
2017-10-29T02:36:09.560Z,956.85
2017-10-29T02:37:19.268Z,956.77
2017-10-29T02:38:28.292Z,956.75
2017-10-29T02:39:37.318Z,956.8
2017-10-29T02:40:46.680Z,956.76
2017-10-29T02:41:55.714Z,956.75
2017-10-29T02:43:04.413Z,956.56
2017-10-29T02:44:13.108Z,956.57
2017-10-29T02:45:21.805Z,956.64
2017-10-29T02:46:31.172Z,956.71
2017-10-29T02:47:39.866Z,956.57
2017-10-29T02:48:48.566Z,956.89
2017-10-29T02:49:57.597Z,956.73
2017-10-29T02:51:06.630Z,956.68
2017-10-29T02:52:15.659Z,956.74
2017-10-29T02:53:25.697Z,956.81
2017-10-29T02:54:34.729Z,956.85
2017-10-29T02:55:43.755Z,956.7
2017-10-29T02:56:53.446Z,956.75
2017-10-29T02:58:02.815Z,956.76
2017-10-29T02:59:12.521Z,956.92
2017-10-29T03:00:22.215Z,956.77
2017-10-29T03:01:31.245Z,956.81
2017-10-29T03:02:40.275Z,956.77
2017-10-29T03:03:48.972Z,956.84
2017-10-29T03:04:58.677Z,956.87
2017-10-29T03:06:08.043Z,956.82
2017-10-29T03:07:17.096Z,956.73
2017-10-29T03:08:26.444Z,956.88
2017-10-29T03:09:35.806Z,956.83
2017-10-29T03:10:45.169Z,956.87
2017-10-29T03:11:53.863Z,956.82
2017-10-29T03:13:02.565Z,956.94
2017-10-29T03:14:11.259Z,956.9
2017-10-29T03:15:19.954Z,956.85
2017-10-29T03:16:28.664Z,956.92
2017-10-29T03:17:37.683Z,956.92
2017-10-29T03:18:46.711Z,956.86
2017-10-29T03:19:56.073Z,956.9
2017-10-29T03:21:05.105Z,956.81
2017-10-29T03:22:13.803Z,956.87
2017-10-29T03:23:22.503Z,956.77
2017-10-29T03:24:31.860Z,956.81
2017-10-29T03:25:40.888Z,956.72
2017-10-29T03:26:49.920Z,956.67
2017-10-29T03:27:59.290Z,956.94
2017-10-29T03:29:08.318Z,957.01
2017-10-29T03:30:17.024Z,957.12
2017-10-29T03:31:26.050Z,957
2017-10-29T03:32:34.740Z,956.92
2017-10-29T03:33:44.438Z,956.95
2017-10-29T03:34:53.806Z,957.1
2017-10-29T03:36:03.160Z,957.04
2017-10-29T03:37:11.854Z,956.98
2017-10-29T03:38:21.213Z,957.22
2017-10-29T03:39:29.912Z,957.02
2017-10-29T03:40:38.613Z,957.13
2017-10-29T03:41:47.977Z,957
2017-10-29T03:42:57.005Z,957.03
2017-10-29T03:44:06.374Z,957.07
2017-10-29T03:45:15.741Z,957.05
2017-10-29T03:46:25.102Z,956.95
2017-10-29T03:47:34.138Z,957.03
2017-10-29T03:48:43.849Z,957.03
2017-10-29T03:49:52.884Z,957.05
2017-10-29T03:51:01.579Z,956.99
2017-10-29T03:52:10.611Z,956.98
2017-10-29T03:53:19.312Z,956.92
2017-10-29T03:54:28.345Z,956.8
2017-10-29T03:55:38.042Z,957
2017-10-29T03:56:47.067Z,956.95
2017-10-29T03:57:56.425Z,957.06
2017-10-29T03:59:05.790Z,957.04
2017-10-29T04:00:14.488Z,957.06
2017-10-29T04:01:23.854Z,957.17
2017-10-29T04:02:33.215Z,957.02
2017-10-29T04:03:43.244Z,957.11
2017-10-29T04:04:52.636Z,957.08
2017-10-29T04:06:02.334Z,957.16
2017-10-29T04:07:11.373Z,957.13
2017-10-29T04:08:20.735Z,957.26
2017-10-29T04:09:29.764Z,957.22
2017-10-29T04:10:39.126Z,957.23
2017-10-29T04:11:48.487Z,957.2
2017-10-29T04:12:57.846Z,957.25
2017-10-29T04:14:06.540Z,957.45
2017-10-29T04:15:15.567Z,957.21
2017-10-29T04:16:25.599Z,957.49
2017-10-29T04:17:35.300Z,957.2
2017-10-29T04:18:44.334Z,957.53
2017-10-29T04:19:53.366Z,957.47
2017-10-29T04:21:02.064Z,957.42
2017-10-29T04:22:11.763Z,957.42
2017-10-29T04:23:20.462Z,957.48
2017-10-29T04:24:29.493Z,957.35
2017-10-29T04:25:38.537Z,957.4
2017-10-29T04:26:47.560Z,957.4
2017-10-29T04:27:56.921Z,957.51
2017-10-29T04:29:06.283Z,957.56
2017-10-29T04:30:14.980Z,957.48
2017-10-29T04:31:23.677Z,957.46
2017-10-29T04:32:32.375Z,957.52
2017-10-29T04:33:41.739Z,957.53
2017-10-29T04:34:50.442Z,957.55
2017-10-29T04:35:59.470Z,957.48
2017-10-29T04:37:08.167Z,957.57
2017-10-29T04:38:16.868Z,957.73
2017-10-29T04:39:26.245Z,957.59
2017-10-29T04:40:35.278Z,957.75
2017-10-29T04:41:44.640Z,957.66
2017-10-29T04:42:53.664Z,957.81
2017-10-29T04:44:03.032Z,957.66
2017-10-29T04:45:12.396Z,957.83
2017-10-29T04:46:21.759Z,957.83
2017-10-29T04:47:31.453Z,957.79
2017-10-29T04:48:40.482Z,957.7
2017-10-29T04:49:49.510Z,957.75
2017-10-29T04:50:58.881Z,957.89
2017-10-29T04:52:07.580Z,957.87
2017-10-29T04:53:17.269Z,957.89
2017-10-29T04:54:26.300Z,957.91
2017-10-29T04:55:35.666Z,958.07
2017-10-29T04:56:45.028Z,958.08
2017-10-29T04:57:53.721Z,957.85
2017-10-29T04:59:03.078Z,958.11
2017-10-29T05:00:12.442Z,958.15
2017-10-29T05:01:21.140Z,958.19
2017-10-29T05:02:30.501Z,958.06
2017-10-29T05:03:40.529Z,958.11
2017-10-29T05:04:49.898Z,958.18
2017-10-29T05:05:58.926Z,958
2017-10-29T05:07:07.627Z,958.2
2017-10-29T05:08:16.659Z,958.15
2017-10-29T05:09:26.025Z,958.28
2017-10-29T05:10:35.391Z,958.13
2017-10-29T05:11:45.088Z,958.12
2017-10-29T05:12:54.112Z,958.16
2017-10-29T05:14:02.808Z,958.1
2017-10-29T05:15:11.835Z,957.97
2017-10-29T05:16:20.868Z,958.03
2017-10-29T05:17:30.227Z,958.18
2017-10-29T05:18:39.921Z,958.17
2017-10-29T05:19:49.288Z,958.19
2017-10-29T05:20:58.653Z,958.26
2017-10-29T05:22:07.679Z,958.2
2017-10-29T05:23:17.043Z,958.15
2017-10-29T05:24:26.065Z,958.15
2017-10-29T05:25:35.428Z,958.24
2017-10-29T05:26:44.787Z,958.24
2017-10-29T05:27:54.151Z,958.47
2017-10-29T05:29:03.538Z,958.32
2017-10-29T05:30:12.545Z,958.34
2017-10-29T05:31:21.580Z,958.41
2017-10-29T05:32:30.608Z,958.41
2017-10-29T05:33:39.319Z,958.39
2017-10-29T05:34:48.020Z,958.41
2017-10-29T05:35:57.382Z,958.4
2017-10-29T05:37:06.747Z,958.41
2017-10-29T05:38:15.782Z,958.39
2017-10-29T05:39:25.491Z,958.51
2017-10-29T05:40:34.853Z,958.41
2017-10-29T05:41:44.222Z,958.5
2017-10-29T05:42:53.246Z,958.53
2017-10-29T05:44:02.937Z,958.48
2017-10-29T05:45:11.962Z,958.44
2017-10-29T05:46:21.336Z,958.55
2017-10-29T05:47:30.367Z,958.48
2017-10-29T05:48:39.400Z,958.56
2017-10-29T05:49:48.102Z,958.64
2017-10-29T05:50:57.458Z,958.66
2017-10-29T05:52:06.157Z,958.4
2017-10-29T05:53:15.517Z,958.82
2017-10-29T05:54:25.227Z,958.64
2017-10-29T05:55:34.590Z,958.74
2017-10-29T05:56:43.960Z,958.82
2017-10-29T05:57:53.324Z,958.8
2017-10-29T05:59:02.687Z,958.78
2017-10-29T06:00:11.381Z,958.72
2017-10-29T06:01:20.409Z,958.83
2017-10-29T06:02:29.437Z,958.7
2017-10-29T06:03:38.468Z,958.88
2017-10-29T06:04:48.171Z,958.77
2017-10-29T06:05:57.554Z,958.86
2017-10-29T06:07:06.256Z,958.89
2017-10-29T06:08:15.281Z,958.87
2017-10-29T06:09:24.644Z,958.97
2017-10-29T06:10:33.674Z,958.94
2017-10-29T06:11:43.046Z,958.96
2017-10-29T06:12:52.080Z,959.03
2017-10-29T06:14:00.780Z,959.06
2017-10-29T06:15:10.154Z,959.18
2017-10-29T06:16:19.182Z,959.03
2017-10-29T06:17:28.879Z,959.19
2017-10-29T06:18:38.241Z,959.17
2017-10-29T06:19:46.940Z,959.27
2017-10-29T06:20:55.972Z,959.41
2017-10-29T06:22:05.005Z,959.51
2017-10-29T06:23:13.703Z,959.56
2017-10-29T06:24:22.734Z,959.58
2017-10-29T06:25:32.092Z,959.57
2017-10-29T06:26:41.134Z,959.59
2017-10-29T06:27:50.486Z,959.65
2017-10-29T06:28:59.513Z,959.79
2017-10-29T06:30:09.202Z,959.69
2017-10-29T06:31:18.564Z,959.68
2017-10-29T06:32:27.261Z,959.77
2017-10-29T06:33:36.303Z,959.88
2017-10-29T06:34:44.993Z,959.75
2017-10-29T06:35:54.017Z,959.87
2017-10-29T06:37:03.047Z,959.77
2017-10-29T06:38:11.740Z,959.91
2017-10-29T06:39:20.439Z,959.97
2017-10-29T06:40:29.134Z,960.04
2017-10-29T06:41:38.830Z,960.09
2017-10-29T06:42:47.864Z,960.09
2017-10-29T06:43:57.230Z,960.11
2017-10-29T06:45:06.606Z,960.16
2017-10-29T06:46:16.300Z,960.18
2017-10-29T06:47:25.327Z,960.26
2017-10-29T06:48:34.357Z,960.35
2017-10-29T06:49:43.393Z,960.3
2017-10-29T06:50:53.101Z,960.27
2017-10-29T06:52:02.467Z,960.3
2017-10-29T06:53:11.164Z,960.4
2017-10-29T06:54:20.194Z,960.38
2017-10-29T06:55:29.586Z,960.41
2017-10-29T06:56:38.958Z,960.36
2017-10-29T06:57:48.325Z,960.48
2017-10-29T06:58:57.351Z,960.49
2017-10-29T07:00:06.720Z,960.54
2017-10-29T07:01:15.750Z,960.57
2017-10-29T07:02:24.787Z,960.54
2017-10-29T07:03:33.821Z,960.63
2017-10-29T07:04:42.861Z,960.7
2017-10-29T07:05:51.550Z,960.56
2017-10-29T07:07:01.242Z,960.71
2017-10-29T07:08:09.942Z,960.74
2017-10-29T07:09:18.966Z,960.75
2017-10-29T07:10:27.990Z,960.79
2017-10-29T07:11:37.353Z,960.75
2017-10-29T07:12:46.381Z,960.83
2017-10-29T07:13:55.078Z,960.9
2017-10-29T07:15:03.773Z,960.91
2017-10-29T07:16:13.157Z,961.03
2017-10-29T07:17:21.837Z,960.98
2017-10-29T07:18:30.881Z,961.09
2017-10-29T07:19:39.905Z,961.15
2017-10-29T07:20:48.934Z,961.14
2017-10-29T07:21:57.962Z,961.18
2017-10-29T07:23:06.659Z,961.13
2017-10-29T07:24:16.020Z,961.19
2017-10-29T07:25:25.079Z,961.23
2017-10-29T07:26:34.109Z,961.28
2017-10-29T07:27:44.150Z,961.23
2017-10-29T07:28:53.517Z,961.31
2017-10-29T07:30:02.875Z,961.32
2017-10-29T07:31:11.575Z,961.31
2017-10-29T07:32:20.932Z,961.36
2017-10-29T07:33:29.966Z,961.34
2017-10-29T07:34:38.662Z,961.41
2017-10-29T07:35:47.360Z,961.38
2017-10-29T07:36:56.056Z,961.46
2017-10-29T07:38:05.087Z,961.59
2017-10-29T07:39:13.785Z,961.53
2017-10-29T07:40:22.813Z,961.6
2017-10-29T07:41:31.510Z,961.59
2017-10-29T07:42:40.541Z,961.48
2017-10-29T07:43:49.240Z,961.55
2017-10-29T07:44:58.269Z,961.62
2017-10-29T07:46:07.638Z,961.58
2017-10-29T07:47:16.366Z,961.63
2017-10-29T07:48:25.364Z,961.49
2017-10-29T07:49:34.061Z,961.65
2017-10-29T07:50:43.092Z,961.69
2017-10-29T07:51:51.791Z,961.8
2017-10-29T07:53:00.823Z,961.73
2017-10-29T07:54:10.188Z,961.8
2017-10-29T07:55:19.545Z,961.87
2017-10-29T07:56:28.911Z,961.93
2017-10-29T07:57:37.609Z,961.92
2017-10-29T07:58:46.634Z,961.97
2017-10-29T07:59:55.661Z,961.96
2017-10-29T08:01:04.692Z,961.93
2017-10-29T08:02:13.392Z,961.99
2017-10-29T08:03:23.099Z,961.92
2017-10-29T08:04:32.140Z,961.92
2017-10-29T08:05:41.173Z,962.01
2017-10-29T08:06:49.879Z,962.04
2017-10-29T08:07:58.902Z,961.99
2017-10-29T08:09:07.601Z,961.98
2017-10-29T08:10:16.299Z,962.12
2017-10-29T08:11:25.327Z,962.1
2017-10-29T08:12:34.690Z,962.13
2017-10-29T08:13:44.059Z,962.2
2017-10-29T08:14:53.418Z,962.21
2017-10-29T08:16:02.448Z,962.18
2017-10-29T08:17:12.149Z,962.3
2017-10-29T08:18:21.515Z,962.33
2017-10-29T08:19:30.544Z,962.25
2017-10-29T08:20:39.243Z,962.3
2017-10-29T08:21:48.273Z,962.26
2017-10-29T08:22:57.636Z,962.27
2017-10-29T08:24:06.677Z,962.4
2017-10-29T08:25:16.041Z,962.35
2017-10-29T08:26:24.739Z,962.46
2017-10-29T08:27:34.105Z,962.43
2017-10-29T08:28:43.137Z,962.34
2017-10-29T08:29:52.169Z,962.38
2017-10-29T08:31:01.865Z,962.43
2017-10-29T08:32:11.562Z,962.6
2017-10-29T08:33:20.597Z,962.58
2017-10-29T08:34:29.296Z,962.56
2017-10-29T08:35:39.013Z,962.62
2017-10-29T08:36:47.719Z,962.66
2017-10-29T08:37:56.750Z,962.57
2017-10-29T08:39:06.446Z,962.58
2017-10-29T08:40:16.144Z,962.66
2017-10-29T08:41:25.509Z,962.59
2017-10-29T08:42:34.869Z,962.64
2017-10-29T08:43:43.906Z,962.52
2017-10-29T08:44:53.269Z,962.66
2017-10-29T08:46:01.969Z,962.75
2017-10-29T08:47:11.004Z,962.67
2017-10-29T08:48:20.704Z,962.8
2017-10-29T08:49:29.731Z,962.79
2017-10-29T08:50:38.429Z,963.01
2017-10-29T08:51:47.130Z,962.89
2017-10-29T08:52:56.157Z,962.83
2017-10-29T08:54:05.188Z,962.88
2017-10-29T08:55:14.217Z,962.78
2017-10-29T08:56:23.586Z,962.76
2017-10-29T08:57:32.629Z,962.87
2017-10-29T08:58:42.330Z,962.93
2017-10-29T08:59:51.368Z,962.92
2017-10-29T09:01:01.413Z,962.99
2017-10-29T09:02:10.600Z,963.04
2017-10-29T09:03:19.632Z,963.04
2017-10-29T09:04:28.674Z,963.01
2017-10-29T09:05:38.036Z,962.98
2017-10-29T09:06:46.733Z,963.02
2017-10-29T09:07:56.098Z,962.9
2017-10-29T09:09:04.796Z,963.06
2017-10-29T09:10:13.830Z,963.1
2017-10-29T09:11:22.537Z,963.13
2017-10-29T09:12:31.579Z,963.19
2017-10-29T09:13:40.280Z,963.1
2017-10-29T09:14:49.315Z,963.19
2017-10-29T09:15:58.690Z,963.23
2017-10-29T09:17:08.060Z,963.2
2017-10-29T09:18:17.102Z,963.28
2017-10-29T09:19:26.136Z,963.35
2017-10-29T09:20:35.503Z,963.32
2017-10-29T09:21:44.202Z,963.35
2017-10-29T09:22:52.908Z,963.24
2017-10-29T09:24:01.952Z,963.32
2017-10-29T09:25:10.993Z,963.38
2017-10-29T09:26:19.693Z,963.38
2017-10-29T09:27:28.727Z,963.45
2017-10-29T09:28:37.756Z,963.36
2017-10-29T09:29:46.790Z,963.46
2017-10-29T09:30:55.824Z,963.49
2017-10-29T09:32:04.859Z,963.51
2017-10-29T09:33:13.897Z,963.48
2017-10-29T09:34:23.258Z,963.51
2017-10-29T09:35:31.962Z,963.61
2017-10-29T09:36:40.990Z,963.66
2017-10-29T09:37:49.688Z,963.68
2017-10-29T09:38:59.047Z,963.68
2017-10-29T09:40:08.414Z,963.51
2017-10-29T09:41:17.798Z,963.6
2017-10-29T09:42:27.160Z,963.52
2017-10-29T09:43:36.195Z,963.63
2017-10-29T09:44:45.559Z,963.69
2017-10-29T09:45:54.262Z,963.65
2017-10-29T09:47:03.294Z,963.7
2017-10-29T09:48:12.329Z,963.71
2017-10-29T09:49:22.368Z,963.63
2017-10-29T09:50:31.070Z,963.65
2017-10-29T09:51:40.439Z,963.76
2017-10-29T09:52:49.130Z,963.83
2017-10-29T09:53:57.824Z,963.72
2017-10-29T09:55:07.523Z,963.82
2017-10-29T09:56:17.258Z,963.81
2017-10-29T09:57:26.958Z,963.83
2017-10-29T09:58:35.990Z,963.84
2017-10-29T09:59:45.024Z,963.89
2017-10-29T10:00:53.722Z,963.84
2017-10-29T10:02:02.777Z,963.89
2017-10-29T10:03:11.786Z,963.72
2017-10-29T10:04:21.156Z,963.86
2017-10-29T10:05:30.193Z,963.89
2017-10-29T10:06:38.894Z,964.02
2017-10-29T10:07:47.927Z,963.95
2017-10-29T10:08:57.622Z,963.95
2017-10-29T10:10:06.999Z,964.02
2017-10-29T10:11:16.036Z,964.08
2017-10-29T10:12:25.764Z,964.06
2017-10-29T10:13:35.447Z,964.09
2017-10-29T10:14:44.821Z,964.09
2017-10-29T10:15:53.520Z,964.06
2017-10-29T10:17:02.897Z,964.04
2017-10-29T10:18:11.598Z,964.06
2017-10-29T10:19:20.972Z,964.07
2017-10-29T10:20:30.011Z,964.1
2017-10-29T10:21:39.050Z,964.03
2017-10-29T10:22:48.084Z,964.03
2017-10-29T10:23:57.122Z,964.09
2017-10-29T10:25:06.153Z,964.06
2017-10-29T10:26:15.526Z,964.17
2017-10-29T10:27:24.557Z,964.15
2017-10-29T10:28:33.923Z,964.24
2017-10-29T10:29:43.292Z,964.22
2017-10-29T10:30:52.328Z,964.3
2017-10-29T10:32:01.360Z,964.36
2017-10-29T10:33:10.395Z,964.23
2017-10-29T10:34:19.773Z,964.24
2017-10-29T10:35:29.142Z,964.3
2017-10-29T10:36:38.181Z,964.38
2017-10-29T10:37:47.214Z,964.48
2017-10-29T10:38:56.577Z,964.47
2017-10-29T10:40:06.275Z,964.47
2017-10-29T10:41:15.306Z,964.45
2017-10-29T10:42:24.670Z,964.47
2017-10-29T10:43:34.040Z,964.48
2017-10-29T10:44:43.078Z,964.55
2017-10-29T10:45:52.442Z,964.57
2017-10-29T10:47:01.146Z,964.59
2017-10-29T10:48:10.525Z,964.76
2017-10-29T10:49:19.229Z,964.73
2017-10-29T10:50:27.934Z,964.87
2017-10-29T10:51:38.008Z,964.93
2017-10-29T10:52:47.726Z,964.94
2017-10-29T10:53:57.775Z,965.01
2017-10-29T10:55:06.810Z,964.95
2017-10-29T10:56:16.176Z,964.89
2017-10-29T10:57:25.211Z,964.79
2017-10-29T10:58:34.905Z,964.8
2017-10-29T10:59:43.941Z,964.88
2017-10-29T11:00:52.973Z,964.76
2017-10-29T11:02:01.681Z,964.85
2017-10-29T11:03:11.042Z,964.85
2017-10-29T11:04:20.941Z,964.87
2017-10-29T11:05:29.974Z,964.89
2017-10-29T11:06:39.002Z,964.92
2017-10-29T11:07:48.030Z,964.92
2017-10-29T11:08:56.727Z,964.99
2017-10-29T11:10:06.088Z,964.96
2017-10-29T11:11:15.455Z,965
2017-10-29T11:12:24.820Z,965.12
2017-10-29T11:13:33.849Z,964.9
2017-10-29T11:14:43.215Z,965.08
2017-10-29T11:15:52.245Z,965.1
2017-10-29T11:17:01.610Z,965.08
2017-10-29T11:18:11.634Z,965.1
2017-10-29T11:19:20.660Z,965.12
2017-10-29T11:20:29.360Z,965.12
2017-10-29T11:21:38.062Z,965.13
2017-10-29T11:22:46.782Z,965.17
2017-10-29T11:23:56.460Z,965.16
2017-10-29T11:25:05.160Z,965.2
2017-10-29T11:26:14.519Z,965.14
2017-10-29T11:27:24.217Z,965.16
2017-10-29T11:28:33.247Z,964.83
2017-10-29T11:29:42.617Z,964.86
2017-10-29T11:30:51.319Z,964.85
2017-10-29T11:32:00.703Z,964.87
2017-10-29T11:33:09.400Z,964.95
2017-10-29T11:34:18.100Z,964.81
2017-10-29T11:35:27.477Z,964.79
2017-10-29T11:36:36.507Z,964.74
2017-10-29T11:37:45.874Z,964.72
2017-10-29T11:38:55.272Z,964.85
2017-10-29T11:40:03.976Z,964.85
2017-10-29T11:41:13.002Z,964.89
2017-10-29T11:42:22.031Z,964.87
2017-10-29T11:43:31.391Z,964.91
2017-10-29T11:44:40.532Z,964.88
2017-10-29T11:45:49.565Z,964.9
2017-10-29T11:46:59.601Z,964.84
2017-10-29T11:48:09.297Z,964.89
2017-10-29T11:49:18.995Z,964.87
2017-10-29T11:50:28.362Z,964.88
2017-10-29T11:51:37.741Z,964.89
2017-10-29T11:52:46.766Z,964.88
2017-10-29T11:53:55.795Z,964.85
2017-10-29T11:55:05.161Z,964.84
2017-10-29T11:56:14.186Z,964.91
2017-10-29T11:57:23.547Z,964.74
2017-10-29T11:58:33.241Z,964.9
2017-10-29T11:59:42.273Z,964.91
2017-10-29T12:00:51.310Z,964.92
2017-10-29T12:02:00.008Z,964.9
2017-10-29T12:03:09.043Z,964.93
2017-10-29T12:04:19.078Z,964.9
2017-10-29T12:05:28.442Z,964.91
2017-10-29T12:06:37.140Z,964.88
2017-10-29T12:07:46.179Z,964.94
2017-10-29T12:08:56.222Z,965.02
2017-10-29T12:10:06.583Z,964.97
2017-10-29T12:11:15.620Z,964.97
2017-10-29T12:12:24.984Z,964.99
2017-10-29T12:13:34.021Z,965
2017-10-29T12:14:43.054Z,965.05
2017-10-29T12:15:52.089Z,965.16
2017-10-29T12:17:01.455Z,965.19
2017-10-29T12:18:10.165Z,965.2
2017-10-29T12:19:19.532Z,965.3
2017-10-29T12:20:28.913Z,965.26
2017-10-29T12:21:38.608Z,965.32
2017-10-29T12:22:47.641Z,965.3
2017-10-29T12:23:57.020Z,965.31
2017-10-29T12:25:05.716Z,965.29
2017-10-29T12:26:14.752Z,965.36
2017-10-29T12:27:23.789Z,965.37
2017-10-29T12:28:32.818Z,965.34
2017-10-29T12:29:42.204Z,965.3
2017-10-29T12:30:51.567Z,965.36
2017-10-29T12:32:00.266Z,965.41
2017-10-29T12:33:09.971Z,965.43
2017-10-29T12:34:19.328Z,965.51
2017-10-29T12:35:28.357Z,965.51
2017-10-29T12:36:37.722Z,965.55
2017-10-29T12:37:46.754Z,965.49
2017-10-29T12:38:56.121Z,965.47
2017-10-29T12:40:05.154Z,965.43
2017-10-29T12:41:14.514Z,965.38
2017-10-29T12:42:23.890Z,965.35
2017-10-29T12:43:32.914Z,965.5
2017-10-29T12:44:41.936Z,965.47
2017-10-29T12:45:50.632Z,965.62
2017-10-29T12:46:59.664Z,965.71
2017-10-29T12:48:09.354Z,965.66
2017-10-29T12:49:18.052Z,965.69
2017-10-29T12:50:27.084Z,965.63
2017-10-29T12:51:36.112Z,965.67
2017-10-29T12:52:45.146Z,965.75
2017-10-29T12:53:53.847Z,965.78
2017-10-29T12:55:02.542Z,965.74
2017-10-29T12:56:11.576Z,965.77
2017-10-29T12:57:20.609Z,965.76
2017-10-29T12:58:29.971Z,965.81
2017-10-29T12:59:39.676Z,965.82
2017-10-29T13:00:48.713Z,965.82
2017-10-29T13:01:58.075Z,965.78
2017-10-29T13:03:07.438Z,965.84
2017-10-29T13:04:16.803Z,965.84
2017-10-29T13:05:25.498Z,965.8
2017-10-29T13:06:34.534Z,965.79
2017-10-29T13:07:43.566Z,965.76
2017-10-29T13:08:52.270Z,965.72
2017-10-29T13:10:01.651Z,965.8
2017-10-29T13:11:10.687Z,965.82
2017-10-29T13:12:20.056Z,965.81
2017-10-29T13:13:29.423Z,965.79
2017-10-29T13:14:38.118Z,965.79
2017-10-29T13:15:47.811Z,965.82
2017-10-29T13:16:56.843Z,965.87
2017-10-29T13:18:06.207Z,965.61
2017-10-29T13:19:14.907Z,965.7
2017-10-29T13:20:23.606Z,965.76
2017-10-29T13:21:32.976Z,965.75
2017-10-29T13:22:42.365Z,965.72
2017-10-29T13:23:51.119Z,965.7
2017-10-29T13:25:00.818Z,965.69
2017-10-29T13:26:09.848Z,965.76
2017-10-29T13:27:19.231Z,965.82
2017-10-29T13:28:28.265Z,965.88
2017-10-29T13:29:37.632Z,965.94
2017-10-29T13:30:46.999Z,965.95
2017-10-29T13:31:55.696Z,965.96
2017-10-29T13:33:05.064Z,965.9
2017-10-29T13:34:14.092Z,966
2017-10-29T13:35:23.792Z,966
2017-10-29T13:36:33.157Z,966
2017-10-29T13:37:42.523Z,965.88
2017-10-29T13:38:51.560Z,965.95
2017-10-29T13:40:00.595Z,965.99
2017-10-29T13:41:09.629Z,966.03
2017-10-29T13:42:18.659Z,966.06
2017-10-29T13:43:28.028Z,966.08
2017-10-29T13:44:37.059Z,966.06
2017-10-29T13:45:46.097Z,966.09
2017-10-29T13:46:54.798Z,966.07
2017-10-29T13:48:03.848Z,966.12
2017-10-29T13:49:13.552Z,966.1
2017-10-29T13:50:22.584Z,966.07
2017-10-29T13:51:31.959Z,966.1
2017-10-29T13:52:41.330Z,966.12
2017-10-29T13:53:50.368Z,966.08
2017-10-29T13:54:59.764Z,966.14
2017-10-29T13:56:08.462Z,966.18
2017-10-29T13:57:17.822Z,966.15
2017-10-29T13:58:26.851Z,966.18
2017-10-29T13:59:36.213Z,966.25
2017-10-29T14:00:45.626Z,966.19
2017-10-29T14:01:54.330Z,966.25
2017-10-29T14:03:03.032Z,966.25
2017-10-29T14:04:12.735Z,966.31
2017-10-29T14:05:21.790Z,966.36
2017-10-29T14:06:31.467Z,966.33
2017-10-29T14:07:40.502Z,966.35
2017-10-29T14:08:50.201Z,966.34
2017-10-29T14:09:58.911Z,966.42
2017-10-29T14:11:08.619Z,966.38
2017-10-29T14:12:17.988Z,966.4
2017-10-29T14:13:27.365Z,966.45
2017-10-29T14:14:37.058Z,966.48
2017-10-29T14:15:45.760Z,966.48
2017-10-29T14:16:54.791Z,966.51
2017-10-29T14:18:03.490Z,966.58
2017-10-29T14:19:12.524Z,966.59
2017-10-29T14:20:21.223Z,966.53
2017-10-29T14:21:30.258Z,966.56
2017-10-29T14:22:39.634Z,966.64
2017-10-29T14:23:48.999Z,966.69
2017-10-29T14:24:58.705Z,966.71
2017-10-29T14:26:08.069Z,966.7